Sea Otter — WDH4842 — position and weather

sailwx.info

Track history (hours):
 
Tides and Currents Weather Stations Pressure Air Temp Water Temp Dewpoint Dewpoint Depression Visibility Wind Speed Wind Dir Waves Ship Positions

Sea Otter

Owner: GARBER BROTHERS INC, MORGAN CITY, LA. More information available from US FCC via Universal Licensing System and Coast Guard Vessel Documentation Center.

Last reported at 2018-Apr-01 20:25 UTC. Time now 2018-Apr-24 16:42 UTC.
Position N 29°25' W 090°44'.
Warning: this ship's position is 22 days out of date.

Length 21 m.

Type: Other ship. MMSI: 367621940.

Date/timePositionNaut miles runAvg speedWind from/ knotsBaromVisibWave heightAir tempDewpointWater temp
2018-Apr-01 20:25N 29°25' W 090°44'4 8.7
2018-Apr-01 20:00N 29°28' W 090°43'4 8.7
2018-Apr-01 19:30N 29°32' W 090°42'3 6.1
2018-Apr-01 19:00N 29°36' W 090°43'2 4.3
2018-Apr-01 18:30N 29°36' W 090°40'1 1.1
2018-Apr-01 18:00N 29°36' W 090°40'0 0.0
2018-Apr-01 17:30N 29°36' W 090°40'0 0.0
2018-Apr-01 16:59N 29°36' W 090°40'2 5.1
2018-Apr-01 16:30N 29°35' W 090°37'4 7.3
2018-Apr-01 16:00N 29°34' W 090°33'2 2.9
2018-Apr-01 15:28N 29°33' W 090°32'0 0.0
2018-Apr-01 03:52N 29°33' W 090°32'1 3.5
2018-Apr-01 03:30N 29°34' W 090°33'4 7.6
2018-Apr-01 03:00N 29°35' W 090°37'4 8.2
2018-Apr-01 02:30N 29°37' W 090°41'3 5.1
2018-Apr-01 02:00N 29°34' W 090°43'3 5.7
2018-Apr-01 01:30N 29°32' W 090°42'4 7.8
2018-Apr-01 01:00N 29°28' W 090°43'5 7.8
2018-Apr-01 00:24N 29°23' W 090°44'  
Track history (hours):
 
Tides and Currents Weather Stations Pressure Air Temp Water Temp Dewpoint Dewpoint Depression Visibility Wind Speed Wind Dir Waves Ship Positions

Sea Otter

Owner: GARBER BROTHERS INC, MORGAN CITY, LA. More information available from US FCC via Universal Licensing System and Coast Guard Vessel Documentation Center.

Last reported at 2018-Apr-01 20:25 UTC. Time now 2018-Apr-24 16:42 UTC.
Position N 29°25' W 090°44'.
Warning: this ship's position is 22 days out of date.

Length 21 m.

Type: Other ship. MMSI: 367621940.

Date/timePositionNaut miles runAvg speedWind from/ knotsBaromVisibWave heightAir tempDewpointWater temp
2018-Apr-01 20:25N 29°25' W 090°44'4 8.7
2018-Apr-01 20:00N 29°28' W 090°43'4 8.7
2018-Apr-01 19:30N 29°32' W 090°42'3 6.1
2018-Apr-01 19:00N 29°36' W 090°43'2 4.3
2018-Apr-01 18:30N 29°36' W 090°40'1 1.1
2018-Apr-01 18:00N 29°36' W 090°40'0 0.0
2018-Apr-01 17:30N 29°36' W 090°40'0 0.0
2018-Apr-01 16:59N 29°36' W 090°40'2 5.1
2018-Apr-01 16:30N 29°35' W 090°37'4 7.3
2018-Apr-01 16:00N 29°34' W 090°33'2 2.9
2018-Apr-01 15:28N 29°33' W 090°32'0 0.0
2018-Apr-01 03:52N 29°33' W 090°32'1 3.5
2018-Apr-01 03:30N 29°34' W 090°33'4 7.6
2018-Apr-01 03:00N 29°35' W 090°37'4 8.2
2018-Apr-01 02:30N 29°37' W 090°41'3 5.1
2018-Apr-01 02:00N 29°34' W 090°43'3 5.7
2018-Apr-01 01:30N 29°32' W 090°42'4 7.8
2018-Apr-01 01:00N 29°28' W 090°43'5 7.8
2018-Apr-01 00:24N 29°23' W 090°44'  

Dump ship's entire track history